Friday, October 31, 2014
11:23 UTC
  |  Log In   |  Register Free
Airport Search:

Fort Smith Regional Airport
(KFSM)

FAA data valid effective September 18, 2014 - November 13, 2014 (unless otherwise noted).

 
 
 
 
 
 
 
 
 
 
 
 
 
 

Current Aviation Weather for Fort Smith Regional Airport (KFSM)

The most recent METAR observation for KFSM was updated at: 1113
METAR Summary (Translated METAR)
KFSM
311053Z 27008KT 10SM CLR 09/05 A3019 RMK AO2 SLP222 T00890050
KJSV
311055Z AUTO 00000KT 10SM CLR 10/05 A3022 RMK AO2
(22.2 nm NW from KFSM)
KRKR
311055Z AUTO 33005KT 10SM CLR 12/05 A3021 RMK AO2 T01160049
(22.6 nm SW from KFSM)
TAF Summary (Translated TAF)
KFSM
310520Z 3106/0106 30009KT P6SM SKC FM311300 34013KT P6SM BKN025 FM311800 35014G21KT P6SM SKC FM010000 01005KT P6SM SKC
  Airport Weather Conditions for KFSM

 Current Weather at FSM
53° F
Fair
Northwest winds at 6.9 mph
FSM NOAA Radar

Pressure: 30.17 in
Humidity: 64%
Wind: Northwest at 6.9 MPH (6 KT)
Dew Point: 41.0°F
Visibility: 10.00 mi


Airport Weather Forecast for KFSM

Translated METAR and TAF for KFSM
Translated METAR for KFSM (1118 UTC 31 October 2014)
found at http://aviationweather.gov/adds/metars/
 
METAR text: KFSM 311053Z 27008KT 10SM CLR 09/05 A3019 RMK AO2 SLP222 T00890050
Conditions at: KFSM (FORT SMITH , AR, US) observed 1053 UTC 31 October 2014
Temperature: 8.9°C (48°F)
Dewpoint: 5.0°C (41°F) [RH = 76%]
Pressure (altimeter): 30.19 inches Hg (1022.4 mb)
[Sea-level pressure: 1022.2 mb]
Winds: from the W (270 degrees) at 9 MPH (8 knots; 4.2 m/s)
Visibility: 10 or more miles (16+ km)
Ceiling: at least 12,000 feet AGL
Clouds: sky clear below 12,000 feet AGL
Weather: no significant weather observed at this time
Translated TAF for KFSM
Forecast for: KFSM (FORT SMITH , AR, US)
TAF Text: KFSM 310520Z 3106/0106 30009KT P6SM SKC
Forecast period: 0600 to 1300 UTC 31 October 2014
Forecast type: FROM: standard forecast or significant change
Winds: from the WNW (300 degrees) at 10 MPH (9 knots; 4.7 m/s)
Visibility: 6 or more miles (10+ km)
Clouds: clear skies
Weather: no significant weather forecast for this period
TAF Text: FM311300 34013KT P6SM BKN025
Forecast period: 1300 to 1800 UTC 31 October 2014
Forecast type: FROM: standard forecast or significant change
Winds: from the NNW (340 degrees) at 15 MPH (13 knots; 6.8 m/s)
Visibility: 6 or more miles (10+ km)
Ceiling: 2500 feet AGL
Clouds: broken clouds at 2500 feet AGL
Weather: no significant weather forecast for this period
TAF Text: FM311800 35014G21KT P6SM SKC
Forecast period: 1800 UTC 31 October 2014 to 0000 UTC 01 November 2014
Forecast type: FROM: standard forecast or significant change
Winds: from the N (350 degrees) at 16 MPH (14 knots; 7.3 m/s)
gusting to 24 MPH (21 knots; 10.9 m/s)
Visibility: 6 or more miles (10+ km)
Clouds: clear skies
Weather: no significant weather forecast for this period
TAF Text: FM010000 01005KT P6SM SKC
Forecast period: 0000 to 0600 UTC 01 November 2014
Forecast type: FROM: standard forecast or significant change
Winds: from the N (10 degrees) at 6 MPH (5 knots; 2.6 m/s)
Visibility: 6 or more miles (10+ km)
Clouds: clear skies
Weather: no significant weather forecast for this period

Find All Airport Services Find A Hotel Find A Rental Car Find A Golf Course Find A Restaurant $100 Hamburger



FBO's on the Field
FBO Company Facility Photos Services Transportation Aviation Fuel Prices: Prices include tax
Catering Weather Repair Courtesy Rental Type 100LL JetA JetA+ MOGAS 8087
 
TAC Air - FSM

This FBO has not yet been rated
FS:Independent
Last Updated: Oct-29
Login to update fuel prices
SS:
Contact TAC Air - FSMMore FBO Information
 
Add another FBO Facility Photos Catering Weather Repair Courtesy Rental Type 100LL JetA JetA+ MOGAS 8087
Services Transportation Aviation Fuel Prices: Prices include tax


model-print
model-print
model-print
model-print